Brunswick Executive Airport (KBXM)
Brunswick, ME
Field Elevation: 72
Lat: 43°53.54N  Long: 69°56.33W
CTAF/Unicom Freq: 122.7250
   
    
Weather Advisories
2018-09-19   07:15 Z
Altimeter 29.87" Hg
Wind 040° @ 11 KT
Gusts 15 KT
Visibility 6 SM
Ceiling BKN008 OVC011
Temperature 14° C (57° F)
Dewpoint 13° C (55° F)
Relative Humidity 96%
Density Altitude --
Condensation Altitude --
Wind and Runways
Indicated Runway = 01
Headwind = 10 kt
Crosswind = 6 kt
History
 
 
 
More Info
All DigiWx sites map
 
NOAA Forecast
 
Airport IQ 5010
(OCNJ) Ocean City, NJ
(39N) Princeton, NJ
 
about DigiWx
 
FAA Disclaimer: The data displayed is for advisory purposes only and is not to be used for flight planning or operations. For official data, please call (not available) to hear the current automated AWOS voice message.
  METAR KBXM 190715Z AUTO 04011G15KT 6 SM BKN008 OVC011 14/13 A2987